To NAV CANADA Home Page Login to a new session Search on AWWS site Feedback and Comments Disclaimer Vers la page française équivalente Tips FAQ What's new on the site To the Forecasts and Observations / NOTAM section To "File a Flight Plan" website Publications and other links Update of the User's profile FIC Telephone Numbers My Weather Data Folder Route Weather Data Regional Weather Data Local Weather Data To the Forecasts and Observations / NOTAM section
Request Generated 10/18/2017 at 03:58:14 UTC . Weather information available at that time is displayed.

METAR/TAF

KINGSTON/ON    

METAR CYGK 180300Z 24013G20KT 15SM FEW160 15/11 A3009 RMK AC2 LAST
STFD OBS/NEXT 181000 UTC SLP191=
METAR CYGK 180200Z 23014G23KT 15SM FEW160 15/10 A3008 RMK AC2 SLP190=
METAR CYGK 180100Z 22015G21KT 15SM FEW250 15/09 A3007 RMK CI2 SLP187=

*** REMARK        : Forecast period has ended; this was the last TAF issued
*** REMARQUE : La période de prévision est échue; ceci était le dernier TAF qui a été émis
TAF CYGK 171938Z 1720/1803 21018G28KT P6SM FEW030 SCT100
BECMG 1723/1801 25015KT
RMK NXT FCST WILL BE ISSUED AT 181145Z=
Your time UTC time
Weather data provided by Environment Canada and NAV CANADA